Time;durP1;ratioP1;P1;durP2;ratioP2;P2;SDS_P1;SDS_P2;PMS_P1;PMS_P2;Temp;Humidity;BMP_temperature;BMP_pressure;BME280_temperature;BME280_humidity;BME280_pressure;Samples;Min_cycle;Max_cycle;Signal;HPM_P1;HPM_P2
2022/03/26 00:00:43;;;;;;;37.90;24.30;;;;;;;7.63;62.68;102950.75;5297970;28;20110;-72
2022/03/26 00:03:15;;;;;;;35.47;22.95;;;;;;;7.61;62.92;102956.72;5298167;28;20036;-72
2022/03/26 00:05:46;;;;;;;36.13;23.87;;;;;;;7.47;63.35;102948.44;5297726;28;20417;-73
2022/03/26 00:08:18;;;;;;;37.77;24.83;;;;;;;7.51;63.34;102947.72;5297510;28;20118;-71
2022/03/26 00:10:49;;;;;;;48.33;27.53;;;;;;;7.55;63.03;102957.41;5297173;28;20073;-74
2022/03/26 00:13:20;;;;;;;35.03;23.87;;;;;;;7.46;63.34;102949.28;5297786;28;20107;-71
2022/03/26 00:15:52;;;;;;;38.47;24.37;;;;;;;7.35;63.98;102945.44;5297701;28;20028;-73
2022/03/26 00:18:23;;;;;;;34.90;24.43;;;;;;;7.31;64.06;102947.03;5297571;28;20031;-74
2022/03/26 00:20:55;;;;;;;38.97;24.87;;;;;;;7.25;64.57;102947.69;5297847;28;20073;-73
2022/03/26 00:23:26;;;;;;;40.17;24.43;;;;;;;7.17;64.48;102943.06;5297396;28;20387;-72
2022/03/26 00:25:58;;;;;;;33.73;23.13;;;;;;;7.06;64.61;102942.66;5296881;28;20059;-72
2022/03/26 00:28:29;;;;;;;39.37;25.47;;;;;;;7.17;64.63;102945.66;5297158;28;20035;-73
2022/03/26 00:31:01;;;;;;;37.13;24.60;;;;;;;7.04;64.46;102933.97;5297685;28;20028;-71
2022/03/26 00:33:32;;;;;;;40.20;23.17;;;;;;;7.06;64.72;102938.34;5297053;28;20538;-70
2022/03/26 00:36:04;;;;;;;38.10;24.03;;;;;;;7.10;64.57;102934.19;5297094;28;20500;-74
2022/03/26 00:38:35;;;;;;;34.97;23.80;;;;;;;7.05;65.07;102935.72;5297347;28;20023;-70
2022/03/26 00:41:07;;;;;;;40.03;23.93;;;;;;;6.97;65.13;102932.88;5296608;28;20028;-71
2022/03/26 00:43:39;;;;;;;34.03;23.90;;;;;;;6.95;65.28;102934.50;5296756;28;20036;-71
2022/03/26 00:46:11;;;;;;;39.90;24.37;;;;;;;6.87;65.74;102944.56;5297247;28;20492;-71
2022/03/26 00:48:43;;;;;;;42.50;24.70;;;;;;;6.75;65.88;102941.53;5296749;28;20372;-72
2022/03/26 00:51:15;;;;;;;37.67;24.30;;;;;;;6.66;66.28;102943.78;5297420;28;20028;-72
2022/03/26 00:53:46;;;;;;;37.83;24.10;;;;;;;6.59;65.53;102944.38;5296982;28;20282;-70
2022/03/26 00:56:18;;;;;;;32.70;23.37;;;;;;;6.61;66.35;102943.59;5296713;28;20077;-71
2022/03/26 00:58:49;;;;;;;39.20;25.73;;;;;;;6.61;66.73;102937.53;5296843;28;20032;-75
2022/03/26 01:01:20;;;;;;;41.90;25.37;;;;;;;6.53;67.07;102943.28;5297246;28;20524;-73
2022/03/26 01:03:52;;;;;;;45.23;25.90;;;;;;;6.55;66.71;102943.34;5296935;28;20442;-72
2022/03/26 01:06:23;;;;;;;35.47;23.60;;;;;;;6.48;67.01;102938.78;5296859;28;20053;-72
2022/03/26 01:08:55;;;;;;;43.57;25.43;;;;;;;6.39;66.63;102934.09;5297010;28;20109;-72
2022/03/26 01:11:26;;;;;;;45.13;26.03;;;;;;;6.31;67.59;102931.25;5296646;28;20032;-71
2022/03/26 01:13:58;;;;;;;39.83;23.13;;;;;;;6.37;67.83;102933.16;5296429;28;20046;-70
2022/03/26 01:16:30;;;;;;;36.40;25.60;;;;;;;6.37;67.40;102935.75;5296702;28;20055;-71
2022/03/26 01:19:02;;;;;;;39.28;24.63;;;;;;;6.27;67.38;102926.75;5297041;28;20499;-71
2022/03/26 01:21:34;;;;;;;36.67;24.63;;;;;;;6.28;67.80;102927.63;5296834;28;20054;-70
2022/03/26 01:24:05;;;;;;;40.47;24.50;;;;;;;6.24;67.91;102936.09;5296631;28;20103;-69
2022/03/26 01:26:37;;;;;;;40.67;24.67;;;;;;;6.20;68.16;102930.81;5294960;28;20040;-70
2022/03/26 01:29:09;;;;;;;37.73;24.73;;;;;;;6.16;67.88;102930.63;5296312;28;20115;-71
2022/03/26 01:31:40;;;;;;;43.20;26.20;;;;;;;6.14;68.39;102927.09;5296730;28;20028;-72
2022/03/26 01:34:11;;;;;;;37.57;25.00;;;;;;;6.06;68.77;102931.09;5296469;28;20032;-72
2022/03/26 01:36:43;;;;;;;42.60;25.70;;;;;;;6.08;69.02;102922.53;5296628;28;20101;-70
2022/03/26 01:39:15;;;;;;;38.83;24.67;;;;;;;5.99;68.87;102923.06;5296313;28;20043;-72
2022/03/26 01:41:46;;;;;;;39.50;25.10;;;;;;;5.79;69.25;102924.78;5296767;28;20028;-71
2022/03/26 01:44:18;;;;;;;37.50;25.27;;;;;;;5.84;69.53;102930.16;5296247;28;20077;-72
2022/03/26 01:46:53;;;;;;;39.47;25.33;;;;;;;5.79;70.04;102932.56;5296485;28;20040;-71
2022/03/26 01:49:24;;;;;;;45.72;26.80;;;;;;;5.63;69.91;102935.31;5296205;28;20032;-71
2022/03/26 01:51:57;;;;;;;42.70;26.10;;;;;;;5.64;70.05;102943.16;5296402;28;20506;-74
2022/03/26 01:54:29;;;;;;;39.78;25.77;;;;;;;5.54;70.45;102940.09;5299718;28;20035;-73
2022/03/26 01:57:00;;;;;;;40.10;26.73;;;;;;;5.49;70.80;102939.94;5300515;28;20024;-74
2022/03/26 01:59:32;;;;;;;43.27;27.03;;;;;;;5.38;70.77;102943.75;5299880;28;20035;-72
2022/03/26 02:02:05;;;;;;;36.67;24.77;;;;;;;5.36;70.79;102935.03;5300387;28;20068;-73
2022/03/26 02:04:36;;;;;;;45.40;26.63;;;;;;;5.33;71.49;102934.88;5300470;28;20500;-71
2022/03/26 02:07:08;;;;;;;46.90;26.03;;;;;;;5.29;71.65;102931.28;5300046;28;20032;-72
2022/03/26 02:09:39;;;;;;;46.37;27.00;;;;;;;5.25;72.03;102938.03;5300319;28;20517;-70
2022/03/26 02:12:28;;;;;;;38.13;25.47;;;;;;;5.24;71.66;102933.69;5300165;28;20023;-74
2022/03/26 02:15:00;;;;;;;43.22;25.65;;;;;;;5.09;72.24;102936.47;5299651;28;20553;-73
2022/03/26 02:17:31;;;;;;;49.47;26.83;;;;;;;5.15;72.04;102932.38;5299723;28;20027;-73
2022/03/26 02:20:13;;;;;;;37.43;25.40;;;;;;;5.17;72.44;102934.25;5300048;28;20028;-71
2022/03/26 02:22:44;;;;;;;36.42;24.95;;;;;;;5.23;72.46;102929.34;5299905;28;20024;-70
2022/03/26 02:25:17;;;;;;;38.17;25.07;;;;;;;5.22;72.35;102931.84;5299705;28;20498;-70
2022/03/26 02:27:48;;;;;;;47.33;25.50;;;;;;;5.16;72.09;102940.22;5299724;28;20095;-70
2022/03/26 02:30:20;;;;;;;41.50;27.37;;;;;;;5.07;72.65;102926.88;5299408;28;20047;-70
2022/03/26 02:32:52;;;;;;;46.30;25.60;;;;;;;5.06;72.79;102930.31;5299788;28;20375;-71
2022/03/26 02:35:23;;;;;;;37.33;25.83;;;;;;;4.98;73.28;102922.19;5299395;28;20047;-70
2022/03/26 02:37:54;;;;;;;41.87;25.47;;;;;;;4.97;73.60;102932.47;5298170;28;20066;-72
2022/03/26 02:40:26;;;;;;;43.93;26.53;;;;;;;4.98;73.41;102932.53;5299356;28;20028;-71
2022/03/26 02:42:57;;;;;;;43.37;25.53;;;;;;;4.92;73.07;102933.13;5297619;28;20055;-71
2022/03/26 02:45:29;;;;;;;39.53;26.63;;;;;;;4.95;73.42;102926.34;5298995;28;20825;-72
2022/03/26 02:48:01;;;;;;;40.33;25.88;;;;;;;4.93;73.78;102928.88;5299294;28;20016;-72
2022/03/26 02:50:32;;;;;;;37.93;24.40;;;;;;;4.87;74.19;102928.59;5299205;28;20044;-73
2022/03/26 02:53:03;;;;;;;37.30;25.40;;;;;;;4.85;74.55;102935.38;5298016;28;20012;-72
2022/03/26 02:55:35;;;;;;;42.23;25.53;;;;;;;4.86;74.34;102929.38;5298938;28;20028;-72
2022/03/26 02:58:07;;;;;;;35.47;24.03;;;;;;;4.88;74.32;102931.25;5299490;28;20035;-72
2022/03/26 03:00:39;;;;;;;35.90;25.55;;;;;;;4.77;74.37;102932.44;5298914;28;20077;-74
2022/03/26 03:03:10;;;;;;;34.27;24.07;;;;;;;4.81;74.31;102928.31;5298694;28;20664;-71
2022/03/26 03:05:42;;;;;;;37.70;24.73;;;;;;;4.75;74.63;102922.03;5298306;28;20156;-74
2022/03/26 03:08:15;;;;;;;40.43;26.23;;;;;;;4.68;74.87;102921.69;5298905;28;20039;-73
2022/03/26 03:10:46;;;;;;;;;;;;;;;4.68;72.70;102926.84;5299555;28;20107;-70
2022/03/26 03:13:21;;;;;;;42.60;24.17;;;;;;;4.57;74.40;102929.84;5298737;28;20349;-71
2022/03/26 03:15:52;;;;;;;38.63;25.75;;;;;;;4.47;74.98;102935.38;5298535;28;20535;-72
2022/03/26 03:18:24;;;;;;;42.30;25.87;;;;;;;4.55;75.46;102935.72;5298638;28;20035;-69
2022/03/26 03:20:55;;;;;;;43.50;25.77;;;;;;;4.47;75.75;102931.91;5298853;28;20030;-70
2022/03/26 03:23:27;;;;;;;42.20;25.20;;;;;;;4.45;75.56;102938.72;5298567;28;20039;-69
2022/03/26 03:25:58;;;;;;;40.83;25.83;;;;;;;4.45;75.44;102937.00;5298374;28;20028;-71
2022/03/26 03:28:29;;;;;;;40.47;25.27;;;;;;;4.44;75.15;102932.63;5298194;28;20035;-72
2022/03/26 03:31:01;;;;;;;38.20;25.13;;;;;;;4.37;75.79;102933.19;5298736;28;20035;-71
2022/03/26 03:33:32;;;;;;;43.23;25.03;;;;;;;4.31;75.59;102936.34;5298328;28;20020;-70
2022/03/26 03:36:04;;;;;;;40.87;26.10;;;;;;;4.36;75.78;102934.88;5298216;28;20048;-70
2022/03/26 03:38:36;;;;;;;40.53;25.08;;;;;;;4.27;75.94;102934.44;5296625;28;20043;-70
2022/03/26 03:41:07;;;;;;;45.70;24.70;;;;;;;4.28;76.40;102932.72;5298288;28;20035;-72
2022/03/26 03:43:38;;;;;;;39.13;25.57;;;;;;;4.22;76.31;102937.59;5298298;28;20165;-70
2022/03/26 03:46:10;;;;;;;39.60;25.63;;;;;;;4.08;77.32;102937.81;5298352;28;20064;-70
2022/03/26 03:48:41;;;;;;;44.47;26.90;;;;;;;4.10;77.60;102933.63;5297878;28;20028;-73
2022/03/26 03:51:13;;;;;;;35.33;24.60;;;;;;;4.09;77.26;102939.63;5298153;28;20092;-71
2022/03/26 03:53:44;;;;;;;43.77;24.77;;;;;;;4.05;77.58;102936.81;5297786;28;20058;-70
2022/03/26 03:56:15;;;;;;;39.83;26.80;;;;;;;3.90;77.66;102945.56;5297931;28;20081;-70
2022/03/26 03:58:47;;;;;;;38.47;27.43;;;;;;;3.86;78.01;102950.50;5297994;28;20035;-70
2022/03/26 04:01:18;;;;;;;39.60;27.07;;;;;;;3.82;78.32;102942.59;5298058;28;20127;-72
2022/03/26 04:03:49;;;;;;;42.27;25.33;;;;;;;3.71;79.16;102945.47;5297503;28;20047;-71
2022/03/26 04:06:21;;;;;;;44.27;27.10;;;;;;;3.74;78.96;102951.66;5297458;28;20526;-71
2022/03/26 04:08:52;;;;;;;46.60;26.70;;;;;;;3.67;79.40;102949.59;5297965;28;20468;-71
2022/03/26 04:11:23;;;;;;;45.93;26.40;;;;;;;3.64;79.69;102949.44;5297622;28;20020;-70
2022/03/26 04:13:55;;;;;;;43.30;28.83;;;;;;;3.62;79.50;102951.03;5297631;28;20020;-73
2022/03/26 04:16:26;;;;;;;47.30;26.93;;;;;;;3.55;80.00;102949.81;5297641;28;20109;-72
2022/03/26 04:18:58;;;;;;;44.37;26.73;;;;;;;3.53;80.24;102948.00;5297169;28;20433;-69
2022/03/26 04:21:30;;;;;;;46.70;27.20;;;;;;;3.56;80.18;102949.03;5295985;28;20059;-73
2022/03/26 04:24:02;;;;;;;44.17;26.40;;;;;;;3.38;80.58;102950.66;5297580;28;20020;-71
2022/03/26 04:26:33;;;;;;;48.83;28.67;;;;;;;3.44;80.63;102951.84;5297389;28;20027;-69
2022/03/26 04:29:05;;;;;;;41.47;27.57;;;;;;;3.43;80.56;102950.09;5297181;28;20035;-69
2022/03/26 04:31:36;;;;;;;48.37;26.30;;;;;;;3.43;80.67;102950.09;5297444;28;20759;-73
2022/03/26 04:34:07;;;;;;;37.23;24.17;;;;;;;3.45;80.40;102951.06;5295113;28;20036;-71
2022/03/26 04:36:39;;;;;;;42.23;26.87;;;;;;;3.43;80.45;102950.09;5297301;28;20412;-69
2022/03/26 04:39:10;;;;;;;39.57;25.83;;;;;;;3.41;80.29;102946.56;5297314;28;20024;-70
2022/03/26 04:41:42;;;;;;;36.23;26.17;;;;;;;3.44;80.24;102946.69;5297014;28;20028;-70
2022/03/26 04:44:14;;;;;;;41.97;27.60;;;;;;;3.44;79.91;102948.41;5297011;28;20028;-69
2022/03/26 04:46:45;;;;;;;36.40;25.10;;;;;;;3.41;80.44;102948.22;5297378;28;20434;-73
2022/03/26 04:49:17;;;;;;;38.30;24.27;;;;;;;3.42;80.26;102947.44;5296753;28;20036;-71
2022/03/26 04:51:48;;;;;;;38.77;25.43;;;;;;;3.42;80.04;102944.88;5296992;28;20031;-72
2022/03/26 04:54:19;;;;;;;42.63;25.47;;;;;;;3.38;80.33;102945.50;5296826;28;20032;-72
2022/03/26 04:56:51;;;;;;;39.67;25.80;;;;;;;3.36;80.78;102944.53;5297204;28;20045;-70
2022/03/26 04:59:22;;;;;;;44.20;26.73;;;;;;;3.35;80.75;102941.09;5296787;28;20486;-73
2022/03/26 05:01:53;;;;;;;36.60;25.23;;;;;;;3.28;80.59;102947.63;5296781;28;20372;-74
2022/03/26 05:04:25;;;;;;;44.77;26.20;;;;;;;3.25;80.76;102947.47;5296887;28;20048;-70
2022/03/26 05:06:56;;;;;;;42.53;26.47;;;;;;;3.22;81.27;102947.28;5296855;28;20100;-72
2022/03/26 05:09:28;;;;;;;43.83;25.83;;;;;;;3.24;81.41;102942.22;5296908;28;20032;-73
2022/03/26 05:11:59;;;;;;;39.23;25.03;;;;;;;3.22;81.35;102939.56;5296886;28;20036;-70
2022/03/26 05:14:30;;;;;;;39.23;26.30;;;;;;;3.16;81.27;102948.69;5296865;28;20028;-72
2022/03/26 05:17:02;;;;;;;45.73;27.13;;;;;;;3.11;81.56;102938.13;5296582;28;20039;-70
2022/03/26 05:19:33;;;;;;;35.93;24.07;;;;;;;3.10;81.67;102942.38;5296505;28;20028;-70
2022/03/26 05:22:05;;;;;;;41.00;26.77;;;;;;;3.07;82.15;102949.06;5296525;28;20036;-70
2022/03/26 05:24:36;;;;;;;44.73;25.53;;;;;;;3.05;82.52;102956.69;5296826;28;20082;-70
2022/03/26 05:27:09;;;;;;;44.87;29.23;;;;;;;3.01;82.78;102959.03;5296467;28;20039;-71
2022/03/26 05:29:40;;;;;;;;;;;;;;;2.99;80.76;102965.81;5300711;28;20039;-73
2022/03/26 05:32:12;;;;;;;42.30;27.05;;;;;;;2.95;82.50;102963.84;5300519;28;19915;-74
2022/03/26 05:34:44;;;;;;;47.58;26.85;;;;;;;2.90;83.08;102971.38;5300520;28;20073;-74
2022/03/26 05:37:16;;;;;;;41.27;26.03;;;;;;;2.83;82.89;102970.13;5300095;28;20055;-71
2022/03/26 05:39:47;;;;;;;41.90;25.87;;;;;;;2.79;83.25;102970.78;5300142;28;20040;-72
2022/03/26 05:42:19;;;;;;;46.53;26.80;;;;;;;2.87;83.50;102971.19;5300329;28;20024;-71
2022/03/26 05:44:50;;;;;;;51.00;27.97;;;;;;;2.81;83.74;102968.28;5298488;28;20055;-73
2022/03/26 05:47:23;;;;;;;45.53;27.00;;;;;;;2.86;84.02;102975.44;5300519;28;20387;-74
2022/03/26 05:49:55;;;;;;;46.28;27.92;;;;;;;2.84;84.02;102977.06;5300280;28;20020;-72
2022/03/26 05:52:26;;;;;;;43.03;26.37;;;;;;;2.80;84.30;102980.28;5300156;28;20067;-75
2022/03/26 05:54:58;;;;;;;48.63;26.87;;;;;;;2.84;84.78;102983.91;5300291;28;20032;-68
2022/03/26 05:57:29;;;;;;;45.90;27.67;;;;;;;2.86;84.56;102979.72;5299964;28;20382;-73
2022/03/26 06:00:01;;;;;;;37.27;27.67;;;;;;;2.96;84.43;102992.28;5299870;28;20051;-73
2022/03/26 06:02:32;;;;;;;43.80;27.07;;;;;;;2.98;84.43;102994.94;5300078;28;20031;-71
2022/03/26 06:05:04;;;;;;;40.80;26.33;;;;;;;2.95;84.54;103003.41;5300101;28;20046;-74
2022/03/26 06:07:36;;;;;;;39.23;25.57;;;;;;;3.04;84.17;103003.00;5299555;28;20031;-72
2022/03/26 06:10:08;;;;;;;42.75;26.75;;;;;;;3.13;83.70;103000.06;5300138;28;20039;-73
2022/03/26 06:12:39;;;;;;;46.43;27.33;;;;;;;3.19;83.92;102996.09;5300039;28;20396;-72
2022/03/26 06:15:11;;;;;;;41.13;27.23;;;;;;;3.25;83.37;102999.00;5299913;28;20107;-73
2022/03/26 06:17:45;;;;;;;39.17;25.27;;;;;;;3.34;83.29;103006.34;5299602;28;20506;-74
2022/03/26 06:20:16;;;;;;;42.58;26.35;;;;;;;3.40;82.81;103001.50;5299432;28;20054;-75
2022/03/26 06:22:48;;;;;;;41.60;26.47;;;;;;;3.56;83.12;103003.19;5299296;28;20020;-71
2022/03/26 06:25:20;;;;;;;49.57;26.60;;;;;;;3.59;82.70;103002.44;5299577;28;20056;-74
2022/03/26 06:27:52;;;;;;;;;;;;;;;3.64;81.56;103001.88;5299993;28;20570;-71
2022/03/26 06:30:23;;;;;;;43.95;25.33;;;;;;;3.73;82.57;103008.31;5299110;28;19922;-73
2022/03/26 06:32:54;;;;;;;49.53;26.13;;;;;;;3.78;82.88;103005.19;5299088;28;20585;-70
2022/03/26 06:35:27;;;;;;;41.73;26.23;;;;;;;3.86;82.89;103015.88;5299342;28;20052;-72
2022/03/26 06:37:59;;;;;;;41.78;26.00;;;;;;;3.99;82.47;103015.69;5299124;28;20114;-71
2022/03/26 06:40:30;;;;;;;41.03;26.60;;;;;;;4.06;82.43;103013.41;5298040;28;20036;-72
2022/03/26 06:43:02;;;;;;;48.07;27.47;;;;;;;4.17;82.59;103022.56;5299051;28;20028;-73
2022/03/26 06:45:34;;;;;;;46.37;28.70;;;;;;;4.27;82.71;103021.34;5299034;28;20035;-74
2022/03/26 06:48:06;;;;;;;44.72;26.50;;;;;;;4.38;82.69;103022.75;5299149;28;20028;-74
2022/03/26 06:50:38;;;;;;;47.72;27.10;;;;;;;4.46;82.17;103029.19;5299310;28;20526;-70
2022/03/26 06:53:09;;;;;;;49.70;29.07;;;;;;;4.60;81.98;103031.53;5298604;28;20055;-70
2022/03/26 06:55:41;;;;;;;56.83;29.23;;;;;;;4.69;81.49;103031.97;5299034;28;20078;-73
2022/03/26 06:58:12;;;;;;;44.57;27.27;;;;;;;4.84;81.12;103031.81;5297697;28;20039;-71
2022/03/26 07:00:44;;;;;;;47.13;28.07;;;;;;;4.96;81.03;103026.31;5298799;28;20456;-73
2022/03/26 07:03:15;;;;;;;42.27;27.90;;;;;;;5.09;80.34;103029.56;5298953;28;20173;-70
2022/03/26 07:05:46;;;;;;;50.47;29.40;;;;;;;5.23;80.17;103031.88;5298914;28;20120;-74
2022/03/26 07:08:18;;;;;;;45.00;27.77;;;;;;;5.38;79.78;103029.13;5298837;28;20039;-74
2022/03/26 07:10:50;;;;;;;46.93;26.87;;;;;;;5.54;79.12;103033.22;5298480;28;20099;-74
2022/03/26 07:13:21;;;;;;;47.87;29.43;;;;;;;5.72;78.13;103034.06;5298402;28;20038;-75
2022/03/26 07:15:53;;;;;;;60.20;28.60;;;;;;;5.82;77.41;103028.44;5299153;28;20391;-72
2022/03/26 07:18:24;;;;;;;40.57;27.53;;;;;;;5.99;76.53;103033.50;5314897;28;20031;-72
2022/03/26 07:21:00;;;;;;;44.37;27.30;;;;;;;6.10;76.25;103036.53;5319327;28;20020;-75
2022/03/26 07:23:31;;;;;;;44.50;28.05;;;;;;;6.24;75.59;103032.81;5317619;28;20499;-72
2022/03/26 07:26:03;;;;;;;45.07;31.07;;;;;;;6.38;75.41;103036.84;5319271;28;20031;-74
2022/03/26 07:28:35;;;;;;;42.63;27.38;;;;;;;6.55;75.04;103037.56;5319501;28;20028;-74
2022/03/26 07:31:07;;;;;;;45.53;28.57;;;;;;;6.69;75.11;103035.50;5318061;28;20022;-72
2022/03/26 07:33:39;;;;;;;49.50;29.00;;;;;;;6.91;73.99;103034.63;5318746;28;20015;-74
2022/03/26 07:36:10;;;;;;;48.77;27.17;;;;;;;7.01;73.24;103038.44;5318793;28;20500;-73
2022/03/26 07:38:42;;;;;;;44.97;26.60;;;;;;;7.22;73.03;103043.56;5317877;28;20066;-74
2022/03/26 07:41:13;;;;;;;43.17;28.70;;;;;;;7.35;72.23;103044.03;5318784;28;20352;-74
2022/03/26 07:43:44;;;;;;;40.50;28.23;;;;;;;7.53;72.03;103043.81;5318997;28;20023;-74
2022/03/26 07:46:19;;;;;;;41.80;27.77;;;;;;;7.72;71.30;103042.75;5317674;28;20036;-73
2022/03/26 07:48:50;;;;;;;45.05;28.73;;;;;;;7.89;70.94;103046.84;5318468;28;20132;-73
2022/03/26 07:51:21;;;;;;;45.50;27.07;;;;;;;7.97;70.56;103047.06;5317889;28;20136;-75
2022/03/26 07:53:53;;;;;;;45.90;27.83;;;;;;;8.20;69.28;103053.94;5318121;28;20276;-74
2022/03/26 07:56:24;;;;;;;44.23;28.13;;;;;;;8.42;69.82;103051.16;5316565;28;20504;-72
2022/03/26 07:58:58;;;;;;;46.37;27.40;;;;;;;8.67;68.68;103045.94;5318917;28;20101;-74
2022/03/26 08:01:30;;;;;;;38.65;26.88;;;;;;;8.85;67.74;103057.75;5319152;28;20026;-74
2022/03/26 08:04:01;;;;;;;35.37;26.03;;;;;;;9.00;66.63;103055.63;5318832;28;20382;-72
2022/03/26 08:06:33;;;;;;;36.40;25.23;;;;;;;9.22;66.96;103056.25;5318879;28;20114;-74
2022/03/26 08:09:05;;;;;;;42.60;24.77;;;;;;;9.39;65.11;103055.03;5318570;28;20475;-75
2022/03/26 08:11:36;;;;;;;40.83;25.95;;;;;;;9.62;64.06;103049.59;5318702;28;20024;-76
2022/03/26 08:14:08;;;;;;;48.20;27.13;;;;;;;9.83;64.51;103050.16;5318489;28;20079;-73
2022/03/26 08:16:40;;;;;;;39.53;25.83;;;;;;;10.12;64.83;103046.56;5318645;28;20027;-73
2022/03/26 08:19:11;;;;;;;44.63;23.93;;;;;;;10.20;63.52;103055.47;5318702;28;20098;-74
2022/03/26 08:21:43;;;;;;;37.00;25.33;;;;;;;10.40;62.61;103053.38;5318438;28;20047;-75
2022/03/26 08:24:14;;;;;;;42.07;24.93;;;;;;;10.70;63.29;103057.56;5317958;28;20107;-73
2022/03/26 08:26:45;;;;;;;42.13;24.83;;;;;;;10.89;62.59;103064.94;5318322;28;20040;-73
2022/03/26 08:29:18;;;;;;;40.40;22.85;;;;;;;11.09;60.83;103054.06;5317933;28;20055;-74
2022/03/26 08:31:50;;;;;;;32.40;21.73;;;;;;;11.24;59.55;103062.22;5318102;28;20074;-74
2022/03/26 08:34:22;;;;;;;47.75;25.63;;;;;;;11.41;60.04;103056.47;5317982;28;20051;-75
2022/03/26 08:36:53;;;;;;;43.23;25.53;;;;;;;11.72;60.27;103060.59;5318059;28;20556;-76
2022/03/26 08:39:25;;;;;;;38.93;23.40;;;;;;;11.81;58.53;103059.84;5318088;28;20407;-74
2022/03/26 08:41:56;;;;;;;35.50;23.50;;;;;;;11.83;58.38;103066.88;5317952;28;20502;-74
2022/03/26 08:44:27;;;;;;;40.60;23.20;;;;;;;12.00;57.99;103064.59;5318169;28;20032;-75
2022/03/26 08:47:02;;;;;;;37.57;23.37;;;;;;;12.34;58.59;103074.75;5317801;28;20479;-75
2022/03/26 08:49:34;;;;;;;37.20;22.33;;;;;;;12.47;56.75;103074.09;5317693;28;20532;-75
2022/03/26 08:52:06;;;;;;;36.03;22.67;;;;;;;12.63;56.62;103080.44;5318476;28;20098;-74
2022/03/26 08:54:37;;;;;;;34.70;22.08;;;;;;;12.94;55.56;103075.66;5317872;28;20031;-75
2022/03/26 08:57:08;;;;;;;35.53;23.07;;;;;;;13.19;55.24;103073.41;5317745;28;20467;-75
2022/03/26 08:59:40;;;;;;;37.83;21.80;;;;;;;13.50;53.37;103070.31;5317410;28;20027;-73
2022/03/26 09:02:11;;;;;;;36.13;20.93;;;;;;;14.01;51.68;103073.47;5317209;28;20372;-72
2022/03/26 09:04:42;;;;;;;36.17;22.13;;;;;;;14.67;50.51;103077.53;5317822;28;20028;-75
2022/03/26 09:07:14;;;;;;;38.33;22.73;;;;;;;15.45;48.35;103069.16;5317980;28;20023;-77
2022/03/26 09:09:45;;;;;;;43.60;23.87;;;;;;;15.86;47.61;103071.06;5317661;28;20046;-75
2022/03/26 09:12:17;;;;;;;33.03;22.23;;;;;;;16.40;46.21;103079.88;5317605;28;20066;-73
2022/03/26 09:14:48;;;;;;;33.30;22.57;;;;;;;16.61;44.97;103082.47;5317344;28;20062;-75
2022/03/26 09:17:19;;;;;;;34.70;23.40;;;;;;;17.09;44.04;103081.50;5317587;28;20024;-75
2022/03/26 09:19:51;;;;;;;36.77;23.17;;;;;;;17.33;42.58;103084.06;5318127;28;20031;-74
2022/03/26 09:22:23;;;;;;;35.80;22.50;;;;;;;17.67;41.84;103076.84;5317836;28;20102;-75
2022/03/26 09:24:54;;;;;;;33.72;21.90;;;;;;;17.82;41.05;103076.75;5317662;28;20032;-73
2022/03/26 09:27:26;;;;;;;37.87;23.00;;;;;;;18.17;40.71;103083.56;5317328;28;20028;-74
2022/03/26 09:29:57;;;;;;;36.03;24.07;;;;;;;18.34;39.94;103086.06;5317096;28;20024;-74
2022/03/26 09:32:29;;;;;;;35.47;24.60;;;;;;;18.63;39.72;103091.97;5317793;28;20070;-75
2022/03/26 09:35:00;;;;;;;36.87;23.43;;;;;;;19.12;38.71;103089.69;5317704;28;20028;-74
2022/03/26 09:37:32;;;;;;;38.67;25.37;;;;;;;19.19;37.87;103092.25;5317635;28;20293;-72
2022/03/26 09:40:04;;;;;;;38.40;24.97;;;;;;;19.37;36.53;103084.13;5317534;28;20031;-74
2022/03/26 09:42:37;;;;;;;38.10;26.65;;;;;;;19.74;37.83;103075.66;5317465;28;20429;-75
2022/03/26 09:45:09;;;;;;;38.80;22.95;;;;;;;19.77;36.03;103087.97;5317067;28;20048;-75
2022/03/26 09:47:40;;;;;;;35.17;21.80;;;;;;;19.92;36.18;103071.88;5317866;28;20709;-75
2022/03/26 09:50:12;;;;;;;32.50;24.03;;;;;;;20.10;34.66;103070.72;5317292;28;20091;-75
2022/03/26 09:52:44;;;;;;;;;;;;;;;21.30;36.56;103078.22;5317815;28;20507;-75
2022/03/26 09:55:17;;;;;;;35.37;22.97;;;;;;;20.69;33.63;103075.91;5317601;28;19941;-76
2022/03/26 09:57:49;;;;;;;31.02;23.08;;;;;;;20.75;34.47;103073.13;5317539;28;20534;-74
2022/03/26 10:00:21;;;;;;;36.50;25.90;;;;;;;20.91;33.69;103068.41;5316799;28;20034;-75
2022/03/26 10:02:52;;;;;;;43.40;26.97;;;;;;;21.09;32.67;103072.47;5316988;28;20035;-73
2022/03/26 10:05:31;;;;;;;34.67;25.20;;;;;;;21.17;33.78;103071.41;5317519;28;20976;-74
2022/03/26 10:08:23;;;;;;;37.47;26.65;;;;;;;21.54;34.35;103070.63;5317001;28;20028;-74
2022/03/26 10:10:55;;;;;;;36.72;24.90;;;;;;;21.80;31.69;103056.75;5317371;28;20031;-74
2022/03/26 10:13:34;;;;;;;34.38;23.35;;;;;;;21.77;32.89;103068.34;5317429;28;20070;-75
2022/03/26 10:16:14;;;;;;;30.98;21.23;;;;;;;22.46;32.20;103070.19;5320910;27;20104;-75
2022/03/26 10:18:47;;;;;;;35.60;22.05;;;;;;;22.78;30.29;103071.94;5321191;28;20741;-76
2022/03/26 10:21:21;;;;;;;28.35;18.52;;;;;;;23.01;29.63;103063.34;5320941;28;20047;-75
2022/03/26 10:23:53;;;;;;;35.58;20.98;;;;;;;22.94;30.80;103067.06;5320946;27;20059;-73
2022/03/26 10:26:26;;;;;;;26.33;19.60;;;;;;;23.41;29.73;103061.28;5320702;28;20027;-74
2022/03/26 10:28:58;;;;;;;29.85;19.90;;;;;;;23.21;28.30;103065.44;5320737;28;20486;-74
2022/03/26 10:34:20;;;;;;;21.80;17.30;;;;;;;23.74;27.07;103066.47;5320589;28;20036;-74
2022/03/26 10:36:57;;;;;;;24.63;17.45;;;;;;;24.09;27.51;103064.47;5320186;28;20043;-74
2022/03/26 10:39:30;;;;;;;23.20;16.60;;;;;;;23.97;26.72;103057.75;5320627;28;20400;-73
2022/03/26 10:42:02;;;;;;;28.77;18.92;;;;;;;23.94;26.55;103064.06;5320454;28;20223;-73
2022/03/26 10:44:33;;;;;;;30.30;19.02;;;;;;;24.92;26.83;103061.53;5319132;28;20024;-75
2022/03/26 10:47:05;;;;;;;28.90;17.57;;;;;;;25.33;25.21;103053.78;5319849;28;20168;-76
2022/03/26 10:49:37;;;;;;;31.63;18.55;;;;;;;25.04;25.02;103063.75;5319959;28;20035;-75
2022/03/26 10:52:14;;;;;;;24.40;17.05;;;;;;;25.43;24.25;103049.81;5320374;27;20031;-74
2022/03/26 10:54:47;;;;;;;24.02;17.45;;;;;;;25.22;24.34;103046.16;5320141;28;20059;-73
2022/03/26 10:57:21;;;;;;;26.33;17.80;;;;;;;24.63;24.46;103062.63;5320348;27;20405;-74
2022/03/26 10:59:54;;;;;;;24.35;16.40;;;;;;;25.07;24.47;103049.44;5319963;28;20981;-74
2022/03/26 11:02:26;;;;;;;23.67;16.10;;;;;;;25.84;23.74;103049.03;5319894;28;20027;-74
2022/03/26 11:04:57;;;;;;;23.27;15.75;;;;;;;26.44;23.08;103046.53;5320134;28;20447;-75
2022/03/26 11:07:29;;;;;;;23.70;15.25;;;;;;;26.10;21.93;103042.66;5319999;28;20031;-75
2022/03/26 11:10:04;;;;;;;22.23;13.80;;;;;;;26.46;21.76;103052.66;5318686;28;20027;-72
2022/03/26 11:12:44;;;;;;;22.67;14.48;;;;;;;26.61;22.50;103053.78;5319896;28;20092;-73
2022/03/26 11:15:26;;;;;;;23.13;13.50;;;;;;;27.26;22.56;103032.09;5320038;28;20046;-73
2022/03/26 11:18:18;;;;;;;;;;;;;;;29.29;21.87;103042.16;5319972;28;20517;-75
2022/03/26 11:21:23;;;;;;;20.00;12.13;;;;;;;28.31;21.28;103037.63;5319808;28;19923;-74
2022/03/26 11:24:07;;;;;;;20.13;12.80;;;;;;;27.71;22.57;103038.84;5319257;28;20027;-74
2022/03/26 11:27:15;;;;;;;20.58;13.18;;;;;;;28.43;22.00;103042.31;5317001;28;20034;-72
2022/03/26 11:30:02;;;;;;;22.25;13.20;;;;;;;28.58;21.10;103043.38;5316910;28;20050;-73
2022/03/26 11:32:43;;;;;;;17.38;12.10;;;;;;;28.43;21.49;103036.94;5317387;28;20108;-75
2022/03/26 11:35:16;;;;;;;17.52;11.70;;;;;;;28.78;21.58;103042.28;5318566;28;20023;-75
2022/03/26 11:37:55;;;;;;;17.83;12.73;;;;;;;28.82;22.32;103048.31;5318741;28;20048;-77
2022/03/26 11:40:48;;;;;;;18.50;13.13;;;;;;;29.18;22.35;103033.81;5319283;28;20084;-75
2022/03/26 11:43:42;;;;;;;17.00;11.88;;;;;;;29.37;21.26;103026.47;5319283;28;20051;-75